Alma, Colorado
Current Conditions -  °F | °C
As of 11:37 AM on Thursday 30 Oct 2014 (Local Time) from KCCU Reporting Station
Clear Clear  
Wind Chill: -1°   Ceiling: Unl
Heat Index:   Visibility: NA
Dew Point: -8°   Wind: 13mph
Humidity: 45%   Direction: 270°W
Pressure: 30.59"   Gusts: 21mph
Location:  39.28°N, 106.06°W
Report Text: KCCU 301737Z AUTO 27011G18KT CLR 03/M08 A3059 RMK AO2 PWINO
Loading
Personal Weather Stations






























Interactive Weather Map
Tropical Storm Tracking
New forecast layout! Learn more

10-Day Weather Forecast

Advertisements
Track Severe Weather on mobile